Time;durP1;ratioP1;P1;durP2;ratioP2;P2;SDS_P1;SDS_P2;PMS_P1;PMS_P2;Temp;Humidity;BMP_temperature;BMP_pressure;BME280_temperature;BME280_humidity;BME280_pressure;Samples;Min_cycle;Max_cycle;Signal;HPM_P1;HPM_P2
2021/10/12 00:01:07;;;;;;;5.10;4.43;;;12.10;99.90;;;;;;5010692;28;20585;-73
2021/10/12 00:03:32;;;;;;;16.53;4.77;;;12.10;99.90;;;;;;5010284;28;20540;-73
2021/10/12 00:05:59;;;;;;;10.50;5.77;;;12.00;99.90;;;;;;5010402;28;20191;-73
2021/10/12 00:08:25;;;;;;;8.60;5.70;;;12.00;99.90;;;;;;5011381;28;20194;-73
2021/10/12 00:10:50;;;;;;;7.70;5.27;;;11.90;99.90;;;;;;5009870;28;20411;-73
2021/10/12 00:13:17;;;;;;;7.80;5.40;;;12.00;99.90;;;;;;5009975;28;20239;-74
2021/10/12 00:15:42;;;;;;;10.83;6.47;;;12.00;99.90;;;;;;5010329;28;20192;-73
2021/10/12 00:18:08;;;;;;;10.97;6.20;;;12.00;99.90;;;;;;5011832;28;20438;-73
2021/10/12 00:20:33;;;;;;;8.90;5.50;;;12.10;99.90;;;;;;5010612;28;20640;-73
2021/10/12 00:22:59;;;;;;;8.70;5.40;;;12.10;99.90;;;;;;5010905;28;20175;-73
2021/10/12 00:25:25;;;;;;;9.87;6.30;;;12.10;99.90;;;;;;5010792;28;20427;-73
2021/10/12 00:27:50;;;;;;;8.53;6.40;;;12.10;99.90;;;;;;5012307;27;20188;-73
2021/10/12 00:30:16;;;;;;;8.27;6.33;;;12.10;99.90;;;;;;5017227;28;20540;-73
2021/10/12 00:32:41;;;;;;;10.77;6.97;;;12.10;99.90;;;;;;5011221;28;20237;-73
2021/10/12 00:35:07;;;;;;;10.50;6.60;;;11.90;99.90;;;;;;5010538;28;20606;-73
2021/10/12 00:37:33;;;;;;;14.90;6.50;;;11.90;99.90;;;;;;5013101;27;20628;-73
2021/10/12 00:39:58;;;;;;;12.60;7.40;;;11.90;99.90;;;;;;5014697;28;20461;-73
2021/10/12 00:42:24;;;;;;;12.33;7.77;;;11.80;99.90;;;;;;5020299;28;20171;-73
2021/10/12 00:44:50;;;;;;;11.20;7.87;;;11.90;99.90;;;;;;5032750;28;20171;-73
2021/10/12 00:47:15;;;;;;;15.68;9.70;;;11.90;99.90;;;;;;5024922;28;20441;-73
2021/10/12 00:49:41;;;;;;;14.60;8.60;;;11.90;99.90;;;;;;5020440;28;20196;-73
2021/10/12 00:52:07;;;;;;;9.03;8.13;;;11.90;99.90;;;;;;5013642;28;20186;-73
2021/10/12 00:54:32;;;;;;;11.23;8.10;;;11.90;99.90;;;;;;5012989;28;20454;-73
2021/10/12 00:56:58;;;;;;;11.20;7.77;;;11.90;99.90;;;;;;5013463;28;20282;-73
2021/10/12 00:59:24;;;;;;;12.83;8.17;;;11.90;99.90;;;;;;5013070;27;20207;-73
2021/10/12 01:01:49;;;;;;;11.30;8.47;;;11.80;99.90;;;;;;5013946;28;20168;-73
2021/10/12 01:04:15;;;;;;;16.03;8.10;;;11.90;99.90;;;;;;5013712;28;20271;-73
2021/10/12 01:06:40;;;;;;;11.00;7.17;;;12.00;99.90;;;;;;5012930;28;20223;-73
2021/10/12 01:09:06;;;;;;;16.77;8.30;;;12.00;99.90;;;;;;5013105;28;20532;-73
2021/10/12 01:11:35;;;;;;;12.53;8.23;;;12.00;99.90;;;;;;5013620;28;20236;-73
2021/10/12 01:14:02;;;;;;;10.13;7.57;;;12.00;99.90;;;;;;5012947;28;20664;-73
2021/10/12 01:16:28;;;;;;;13.00;7.90;;;12.00;99.90;;;;;;5012884;28;20431;-73
2021/10/12 01:19:08;;;;;;;9.83;8.07;;;12.00;99.90;;;;;;5012792;28;20459;-73
2021/10/12 01:21:45;;;;;;;15.20;8.67;;;12.00;99.90;;;;;;5012735;28;20170;-73
2021/10/12 01:24:12;;;;;;;12.13;9.00;;;12.00;99.90;;;;;;5013821;27;20431;-73
2021/10/12 01:26:39;;;;;;;13.93;9.00;;;12.00;99.90;;;;;;5011106;28;20442;-73
2021/10/12 01:29:06;;;;;;;14.43;9.30;;;12.00;99.90;;;;;;5013023;28;20419;-73
2021/10/12 01:31:32;;;;;;;11.20;9.40;;;12.10;99.90;;;;;;5012922;28;20879;-73
2021/10/12 01:33:58;;;;;;;13.70;9.00;;;12.10;99.90;;;;;;5012375;28;20458;-73
2021/10/12 01:36:25;;;;;;;9.57;8.10;;;12.10;99.90;;;;;;5013548;28;20659;-73
2021/10/12 01:38:50;;;;;;;14.70;8.40;;;12.10;99.90;;;;;;5010922;28;20478;-73
2021/10/12 01:41:16;;;;;;;13.77;8.87;;;12.20;99.90;;;;;;5012456;28;20422;-73
2021/10/12 01:43:43;;;;;;;11.37;8.57;;;12.10;99.90;;;;;;5012355;28;20180;-73
2021/10/12 01:46:09;;;;;;;13.37;10.30;;;12.10;99.90;;;;;;5012875;27;20211;-73
2021/10/12 01:48:35;;;;;;;12.17;10.23;;;12.10;99.90;;;;;;5011945;28;20402;-73
2021/10/12 01:51:01;;;;;;;13.57;11.13;;;12.00;99.90;;;;;;5013358;28;20423;-73
2021/10/12 01:53:29;;;;;;;15.00;11.10;;;12.10;99.90;;;;;;5012922;28;20550;-73
2021/10/12 01:55:55;;;;;;;13.63;12.20;;;12.10;99.90;;;;;;5014442;28;20426;-73
2021/10/12 01:58:21;;;;;;;14.27;10.70;;;12.00;99.90;;;;;;5040218;28;20401;-73
2021/10/12 02:00:46;;;;;;;15.77;11.57;;;12.00;99.90;;;;;;5036719;27;20429;-73
2021/10/12 02:03:12;;;;;;;15.83;12.00;;;12.00;99.90;;;;;;5032248;28;20175;-73
2021/10/12 02:05:37;;;;;;;13.80;10.93;;;12.10;99.90;;;;;;5031823;28;20199;-73
2021/10/12 02:08:03;;;;;;;15.50;11.53;;;12.10;99.90;;;;;;5020093;28;20691;-73
2021/10/12 02:10:29;;;;;;;12.90;11.20;;;12.00;99.90;;;;;;5012695;28;20191;-73
2021/10/12 02:12:55;;;;;;;16.60;11.73;;;12.00;99.90;;;;;;5011031;28;20787;-72
2021/10/12 02:15:20;;;;;;;13.80;10.80;;;12.00;99.90;;;;;;5011853;28;20200;-73
2021/10/12 02:17:46;;;;;;;13.30;11.00;;;12.00;99.90;;;;;;5012482;28;20547;-73
2021/10/12 02:20:12;;;;;;;20.27;12.60;;;12.00;99.90;;;;;;5012716;28;20633;-73
2021/10/12 02:22:39;;;;;;;18.33;12.13;;;11.90;99.90;;;;;;5017315;28;20403;-73
2021/10/12 02:25:07;;;;;;;17.67;13.00;;;11.90;99.90;;;;;;5016209;28;20199;-73
2021/10/12 02:27:32;;;;;;;14.53;12.30;;;11.80;99.90;;;;;;5012187;28;20407;-73
2021/10/12 02:29:58;;;;;;;19.30;12.93;;;11.90;99.90;;;;;;5011996;27;20469;-74
2021/10/12 02:32:24;;;;;;;15.17;12.10;;;11.70;99.90;;;;;;5012141;28;20187;-73
2021/10/12 02:34:49;;;;;;;14.07;11.57;;;11.70;99.90;;;;;;5012393;28;20225;-74
2021/10/12 02:37:15;;;;;;;14.30;11.87;;;11.70;99.90;;;;;;5013524;28;21081;-73
2021/10/12 02:39:41;;;;;;;17.20;12.87;;;11.80;99.90;;;;;;5014448;28;20255;-73
2021/10/12 02:42:07;;;;;;;15.60;11.97;;;11.80;99.90;;;;;;5016144;28;20175;-73
2021/10/12 02:44:33;;;;;;;14.23;10.80;;;11.90;99.90;;;;;;5032149;28;20182;-73
2021/10/12 02:46:58;;;;;;;18.67;13.50;;;11.90;99.90;;;;;;5032408;28;20567;-73
2021/10/12 02:49:24;;;;;;;14.80;10.80;;;11.80;99.90;;;;;;5031016;28;20183;-73
2021/10/12 02:51:50;;;;;;;12.80;10.10;;;11.90;99.90;;;;;;5022525;27;20282;-73
2021/10/12 02:54:16;;;;;;;15.63;11.13;;;11.90;99.90;;;;;;5012525;28;20199;-73
2021/10/12 02:56:41;;;;;;;14.10;9.63;;;11.90;99.90;;;;;;5011630;28;20270;-73
2021/10/12 02:59:07;;;;;;;12.23;9.70;;;11.90;99.90;;;;;;5011694;28;20172;-73
2021/10/12 03:01:32;;;;;;;11.50;9.80;;;11.90;99.90;;;;;;5016173;28;20518;-73
2021/10/12 03:03:58;;;;;;;12.07;9.23;;;11.80;99.90;;;;;;5022198;27;20187;-73
2021/10/12 03:06:23;;;;;;;10.80;8.13;;;11.90;99.90;;;;;;5021971;28;20242;-73
2021/10/12 03:08:49;;;;;;;10.27;7.57;;;11.90;99.90;;;;;;5011497;28;20179;-73
2021/10/12 03:11:14;;;;;;;10.00;6.87;;;11.90;99.90;;;;;;5011648;28;20195;-73
2021/10/12 03:13:40;;;;;;;11.27;7.87;;;11.90;99.90;;;;;;5012411;28;20199;-73
2021/10/12 03:16:07;;;;;;;8.30;6.97;;;11.90;99.90;;;;;;5011260;28;20227;-73
2021/10/12 03:18:34;;;;;;;8.87;6.57;;;11.90;99.90;;;;;;5011340;27;20195;-73
2021/10/12 03:20:59;;;;;;;8.70;6.93;;;11.90;99.90;;;;;;5010797;28;20809;-73
2021/10/12 03:23:26;;;;;;;9.47;7.23;;;12.00;99.90;;;;;;5011175;28;20440;-74
2021/10/12 03:25:51;;;;;;;12.83;8.87;;;11.90;99.90;;;;;;5011872;28;20260;-73
2021/10/12 03:28:17;;;;;;;8.40;6.93;;;11.90;99.90;;;;;;5011057;27;20947;-73
2021/10/12 03:30:42;;;;;;;9.47;7.53;;;12.00;99.90;;;;;;5010601;28;20213;-73
2021/10/12 03:33:08;;;;;;;11.40;7.90;;;11.90;99.90;;;;;;5011463;28;20171;-73
2021/10/12 03:35:38;;;;;;;7.30;6.60;;;11.90;99.90;;;;;;5011758;28;20244;-73
2021/10/12 03:38:04;;;;;;;9.03;7.40;;;12.00;99.90;;;;;;5011033;27;20195;-73
2021/10/12 03:40:31;;;;;;;12.93;7.53;;;11.90;99.90;;;;;;5010585;28;20423;-73
2021/10/12 03:42:57;;;;;;;10.20;8.23;;;11.90;99.90;;;;;;5011120;28;20164;-73
2021/10/12 03:45:22;;;;;;;11.63;8.33;;;11.90;99.90;;;;;;5009681;28;20484;-73
2021/10/12 03:47:48;;;;;;;10.43;9.17;;;12.00;99.90;;;;;;5011667;28;20415;-73
2021/10/12 03:50:14;;;;;;;12.40;10.00;;;12.00;99.90;;;;;;5010500;28;20183;-73
2021/10/12 03:52:40;;;;;;;13.47;10.97;;;11.90;99.90;;;;;;5010339;28;20446;-73
2021/10/12 03:55:07;;;;;;;13.80;10.50;;;12.00;99.90;;;;;;5010501;28;20207;-73
2021/10/12 03:57:32;;;;;;;15.90;11.07;;;12.00;99.90;;;;;;5023707;28;20167;-73
2021/10/12 03:59:58;;;;;;;20.07;13.20;;;12.00;99.90;;;;;;5029270;28;20899;-73
2021/10/12 04:02:24;;;;;;;15.20;12.37;;;12.00;99.90;;;;;;5030358;28;20241;-73
2021/10/12 04:04:49;;;;;;;23.97;13.80;;;12.00;99.90;;;;;;5029820;28;20169;-73
2021/10/12 04:07:15;;;;;;;23.80;14.00;;;11.90;99.90;;;;;;5028503;28;20183;-73
2021/10/12 04:09:40;;;;;;;20.60;12.97;;;11.90;99.90;;;;;;5030098;27;20643;-73
2021/10/12 04:12:06;;;;;;;15.53;12.37;;;11.90;99.90;;;;;;5032644;28;20190;-73
2021/10/12 04:14:31;;;;;;;19.67;12.40;;;11.90;99.90;;;;;;5033693;28;20199;-73
2021/10/12 04:16:57;;;;;;;13.30;10.47;;;11.90;99.90;;;;;;5033628;28;20678;-73
2021/10/12 04:19:23;;;;;;;17.47;9.57;;;11.90;99.90;;;;;;5032046;28;20231;-73
2021/10/12 04:21:48;;;;;;;14.30;9.43;;;11.90;99.90;;;;;;5033569;28;20171;-73
2021/10/12 04:24:14;;;;;;;13.20;8.90;;;11.90;99.90;;;;;;5033425;27;20598;-73
2021/10/12 04:26:40;;;;;;;13.10;10.10;;;11.80;99.90;;;;;;5033353;28;20202;-72
2021/10/12 04:29:06;;;;;;;11.00;8.73;;;11.80;99.90;;;;;;5025017;28;20174;-72
2021/10/12 04:31:33;;;;;;;9.80;8.00;;;11.80;99.90;;;;;;5013490;28;20433;-73
2021/10/12 04:33:58;;;;;;;22.53;9.40;;;11.80;99.90;;;;;;5013214;28;20454;-73
2021/10/12 04:36:24;;;;;;;11.60;8.63;;;11.80;99.90;;;;;;5016264;27;20881;-72
2021/10/12 04:38:50;;;;;;;9.40;8.37;;;11.80;99.90;;;;;;5023509;28;20243;-73
2021/10/12 04:41:15;;;;;;;10.27;8.93;;;11.70;99.90;;;;;;5013841;28;20164;-73
2021/10/12 04:43:41;;;;;;;11.17;8.70;;;11.70;99.90;;;;;;5030850;28;20612;-73
2021/10/12 04:46:07;;;;;;;10.03;8.30;;;11.70;99.90;;;;;;5027778;27;20219;-73
2021/10/12 04:48:33;;;;;;;10.60;7.57;;;11.80;99.90;;;;;;5022035;28;20426;-73
2021/10/12 04:50:59;;;;;;;11.80;8.17;;;11.80;99.90;;;;;;5018821;28;20197;-73
2021/10/12 04:53:24;;;;;;;10.73;8.57;;;11.80;99.90;;;;;;5026334;28;20476;-73
2021/10/12 04:55:50;;;;;;;10.43;8.60;;;11.70;99.90;;;;;;5030110;27;20202;-73
2021/10/12 04:58:16;;;;;;;14.50;9.77;;;11.70;99.90;;;;;;5030467;28;20179;-72
2021/10/12 05:00:42;;;;;;;17.93;10.20;;;11.70;99.90;;;;;;5016649;28;20415;-72
2021/10/12 05:03:07;;;;;;;13.47;10.37;;;11.60;99.90;;;;;;5020289;28;20437;-72
2021/10/12 05:05:33;;;;;;;15.30;11.17;;;11.60;99.90;;;;;;5021954;28;20203;-72
2021/10/12 05:07:59;;;;;;;14.37;12.17;;;11.60;99.90;;;;;;5027023;27;20222;-72
2021/10/12 05:10:25;;;;;;;17.20;12.80;;;11.60;99.90;;;;;;5025284;28;20194;-72
2021/10/12 05:12:51;;;;;;;17.47;13.57;;;11.70;99.90;;;;;;5036459;28;20344;-72
2021/10/12 05:15:25;;;;;;;18.83;15.20;;;11.70;99.90;;;;;;5015752;28;20522;-72
2021/10/12 05:17:51;;;;;;;18.43;14.07;;;11.60;99.90;;;;;;5021476;27;20452;-72
2021/10/12 05:20:17;;;;;;;21.00;15.87;;;11.60;99.90;;;;;;5024494;28;20448;-72
2021/10/12 05:22:44;;;;;;;21.03;15.53;;;11.60;99.90;;;;;;5013566;28;20852;-72
2021/10/12 05:25:09;;;;;;;23.27;16.00;;;11.60;99.90;;;;;;5022384;28;20468;-72
2021/10/12 05:27:36;;;;;;;22.40;15.70;;;11.60;99.90;;;;;;5032211;28;20417;-72
2021/10/12 05:30:07;;;;;;;18.90;15.90;;;11.60;99.90;;;;;;5013853;27;20231;-72
2021/10/12 05:32:34;;;;;;;21.43;16.00;;;11.60;99.90;;;;;;5018915;28;20998;-73
2021/10/12 05:35:00;;;;;;;22.07;16.13;;;11.60;99.90;;;;;;5069933;27;20802;-72
2021/10/12 05:37:26;;;;;;;19.43;16.00;;;11.60;99.90;;;;;;5033008;27;20536;-73
2021/10/12 05:39:51;;;;;;;21.00;16.10;;;11.50;99.90;;;;;;5034509;27;20636;-73
2021/10/12 05:42:17;;;;;;;19.33;15.90;;;11.50;99.90;;;;;;5092238;27;20222;-73
2021/10/12 05:44:42;;;;;;;19.40;15.30;;;11.50;99.90;;;;;;5022732;27;20239;-73
2021/10/12 05:47:08;;;;;;;21.43;16.87;;;11.60;99.90;;;;;;5040135;27;20226;-73
2021/10/12 05:49:36;;;;;;;24.13;16.80;;;11.60;99.90;;;;;;5047590;28;20217;-73
2021/10/12 05:52:03;;;;;;;20.70;16.17;;;11.60;99.90;;;;;;5041490;27;20273;-73
2021/10/12 05:54:31;;;;;;;23.43;16.70;;;11.60;99.90;;;;;;5023878;27;20480;-73
2021/10/12 05:57:04;;;;;;;23.27;17.70;;;11.60;99.90;;;;;;5025132;27;20473;-73
2021/10/12 05:59:29;;;;;;;22.60;16.63;;;11.50;99.90;;;;;;5035856;27;20453;-73
2021/10/12 06:01:55;;;;;;;24.47;18.63;;;11.50;99.90;;;;;;5092767;27;20471;-73
2021/10/12 06:04:20;;;;;;;23.00;16.90;;;11.50;99.90;;;;;;5086281;27;20210;-72
2021/10/12 06:06:46;;;;;;;27.40;17.27;;;11.40;99.90;;;;;;5041978;27;20220;-72
2021/10/12 06:09:11;;;;;;;21.40;18.10;;;11.40;99.90;;;;;;5041922;28;20389;-72
2021/10/12 06:11:37;;;;;;;21.47;16.63;;;11.50;99.90;;;;;;5045133;28;20631;-70
2021/10/12 06:14:03;;;;;;;18.30;15.20;;;11.50;99.90;;;;;;5046001;28;20702;-72
2021/10/12 06:16:28;;;;;;;19.97;16.23;;;11.50;99.90;;;;;;5043742;28;20325;-72
2021/10/12 06:18:54;;;;;;;21.30;16.17;;;11.40;99.90;;;;;;5018148;27;20222;-72
2021/10/12 06:21:19;;;;;;;17.73;14.47;;;11.40;99.90;;;;;;5010453;28;20206;-70
2021/10/12 06:23:45;;;;;;;15.97;14.27;;;11.40;99.90;;;;;;5026856;27;20279;-73
2021/10/12 06:26:10;;;;;;;16.10;13.07;;;11.40;99.90;;;;;;5025809;27;20202;-74
2021/10/12 06:28:37;;;;;;;20.20;13.80;;;11.50;99.90;;;;;;5036298;27;20198;-73
2021/10/12 06:31:02;;;;;;;15.77;12.80;;;11.50;99.90;;;;;;5049485;28;20226;-73
2021/10/12 06:33:28;;;;;;;21.13;12.90;;;11.50;99.90;;;;;;5031339;27;20507;-72
2021/10/12 06:35:53;;;;;;;12.97;11.53;;;11.50;99.90;;;;;;5027969;28;20263;-73
2021/10/12 06:38:19;;;;;;;12.33;11.13;;;11.50;99.90;;;;;;5010295;27;20272;-72
2021/10/12 06:40:45;;;;;;;12.77;11.23;;;11.50;99.90;;;;;;5007190;28;20195;-73
2021/10/12 06:43:10;;;;;;;13.73;10.73;;;11.50;99.90;;;;;;5028998;27;20226;-72
2021/10/12 06:45:37;;;;;;;12.40;10.20;;;11.50;99.90;;;;;;5034004;27;20231;-73
2021/10/12 06:48:03;;;;;;;15.27;10.93;;;11.40;99.90;;;;;;5005859;27;20219;-73
2021/10/12 06:50:29;;;;;;;13.73;10.33;;;11.50;99.90;;;;;;5007367;27;20466;-72
2021/10/12 06:52:55;;;;;;;13.63;9.87;;;11.50;99.90;;;;;;5020974;27;20451;-72
2021/10/12 06:55:21;;;;;;;12.03;10.83;;;11.40;99.90;;;;;;5012067;28;20474;-72
2021/10/12 06:57:48;;;;;;;17.37;12.67;;;11.40;99.90;;;;;;5019676;27;20222;-72
2021/10/12 07:00:15;;;;;;;14.13;9.93;;;11.40;99.90;;;;;;5019288;28;20438;-73
2021/10/12 07:02:42;;;;;;;12.70;9.97;;;11.40;99.90;;;;;;5006105;27;20446;-73
2021/10/12 07:05:08;;;;;;;11.47;10.30;;;11.50;99.90;;;;;;5023877;28;20524;-73
2021/10/12 07:07:33;;;;;;;17.07;11.43;;;11.40;99.90;;;;;;5026512;28;20433;-74
2021/10/12 07:09:59;;;;;;;16.47;12.10;;;11.40;99.90;;;;;;5025423;27;20449;-72
2021/10/12 07:12:26;;;;;;;15.63;10.53;;;11.50;99.90;;;;;;5026946;28;20206;-73
2021/10/12 07:14:51;;;;;;;15.47;10.10;;;11.50;99.90;;;;;;5016526;27;20567;-73
2021/10/12 07:17:17;;;;;;;14.97;11.60;;;11.50;99.90;;;;;;5005314;28;20804;-72
2021/10/12 07:19:42;;;;;;;14.40;11.07;;;11.40;99.90;;;;;;5006093;27;20211;-73
2021/10/12 07:22:08;;;;;;;13.70;10.53;;;11.40;99.90;;;;;;5010845;28;20585;-72
2021/10/12 07:24:34;;;;;;;12.60;11.07;;;11.40;99.90;;;;;;5022563;27;20786;-73
2021/10/12 07:26:59;;;;;;;16.17;11.07;;;11.50;99.90;;;;;;5025175;28;20230;-73
2021/10/12 07:29:25;;;;;;;12.50;10.47;;;11.50;99.90;;;;;;5025544;27;20242;-72
2021/10/12 07:31:51;;;;;;;13.23;10.00;;;11.50;99.90;;;;;;5010853;28;20229;-73
2021/10/12 07:34:16;;;;;;;10.80;9.60;;;11.60;99.90;;;;;;5004438;27;20238;-73
2021/10/12 07:36:42;;;;;;;16.60;10.60;;;11.60;99.90;;;;;;5006299;28;20207;-73
2021/10/12 07:39:08;;;;;;;14.53;10.00;;;11.60;99.90;;;;;;5004688;27;20219;-74
2021/10/12 07:41:35;;;;;;;11.43;9.80;;;11.60;99.90;;;;;;5005000;28;20733;-72
2021/10/12 07:44:02;;;;;;;12.13;10.80;;;11.60;99.90;;;;;;5004236;27;20465;-73
2021/10/12 07:46:27;;;;;;;13.13;9.90;;;11.60;99.90;;;;;;5009455;28;20465;-72
2021/10/12 07:48:54;;;;;;;15.07;12.17;;;11.60;99.90;;;;;;5015879;27;20890;-72
2021/10/12 07:51:20;;;;;;;12.30;11.07;;;11.50;99.90;;;;;;5009637;28;20718;-73
2021/10/12 07:53:47;;;;;;;15.60;11.83;;;11.50;99.90;;;;;;5008553;27;20470;-73
2021/10/12 07:56:18;;;;;;;12.97;11.63;;;11.60;99.90;;;;;;5009581;28;20438;-74
2021/10/12 07:58:44;;;;;;;12.43;10.57;;;11.60;99.90;;;;;;5009079;27;21009;-74
2021/10/12 08:01:10;;;;;;;16.70;11.97;;;11.60;99.90;;;;;;5008315;28;20571;-74
2021/10/12 08:03:35;;;;;;;12.67;10.03;;;11.60;99.90;;;;;;5008494;28;20571;-73
2021/10/12 08:06:04;;;;;;;13.70;11.60;;;11.70;99.90;;;;;;5008345;27;20215;-73
2021/10/12 08:08:30;;;;;;;12.07;10.87;;;11.70;99.90;;;;;;5013289;28;20213;-73
2021/10/12 08:10:55;;;;;;;14.03;10.47;;;11.70;99.90;;;;;;5007479;27;20454;-73
2021/10/12 08:13:24;;;;;;;11.13;10.03;;;11.70;99.90;;;;;;5008531;28;20200;-74
2021/10/12 08:15:54;;;;;;;10.80;9.70;;;11.70;99.90;;;;;;5008478;27;20211;-73
2021/10/12 08:18:20;;;;;;;12.40;9.50;;;11.80;99.90;;;;;;5015589;28;21002;-73
2021/10/12 08:20:49;;;;;;;10.87;9.63;;;11.80;99.90;;;;;;5028843;27;20477;-73
2021/10/12 08:23:15;;;;;;;12.70;10.80;;;11.80;99.90;;;;;;5027876;28;20433;-73
2021/10/12 08:25:40;;;;;;;12.73;10.47;;;11.80;99.90;;;;;;5023202;27;20458;-72
2021/10/12 08:28:06;;;;;;;11.30;10.20;;;11.80;99.90;;;;;;5011223;28;20207;-73
2021/10/12 08:30:31;;;;;;;11.63;10.50;;;11.80;99.90;;;;;;5019943;28;20889;-72
2021/10/12 08:32:57;;;;;;;12.23;11.10;;;11.80;99.90;;;;;;5028157;28;20199;-73
2021/10/12 08:35:22;;;;;;;13.83;12.20;;;11.80;99.90;;;;;;5026583;27;20254;-72
2021/10/12 08:37:48;;;;;;;14.73;12.63;;;11.80;99.90;;;;;;5028400;28;20428;-72
2021/10/12 08:40:16;;;;;;;14.97;12.63;;;11.80;99.90;;;;;;5025502;27;20225;-72
2021/10/12 08:42:48;;;;;;;16.70;14.97;;;11.80;99.90;;;;;;5018436;28;20225;-72
2021/10/12 08:45:15;;;;;;;15.67;14.07;;;11.80;99.90;;;;;;5007360;27;20871;-73
2021/10/12 08:47:41;;;;;;;15.23;12.80;;;11.90;99.90;;;;;;5006992;28;20474;-72
2021/10/12 08:50:10;;;;;;;17.50;12.97;;;11.90;99.90;;;;;;5008776;27;20478;-73
2021/10/12 08:52:36;;;;;;;18.27;13.63;;;11.90;99.90;;;;;;5025558;27;21421;-72
2021/10/12 08:55:02;;;;;;;17.27;13.07;;;12.00;99.90;;;;;;5019918;27;20461;-73
2021/10/12 08:57:38;;;;;;;14.30;12.47;;;12.10;99.90;;;;;;5008525;28;20676;-72
2021/10/12 09:00:08;;;;;;;14.17;12.63;;;12.10;99.90;;;;;;5008279;27;20430;-73
2021/10/12 09:02:34;;;;;;;15.70;12.53;;;12.10;99.90;;;;;;5009082;28;20450;-72
2021/10/12 09:05:00;;;;;;;13.97;11.97;;;12.10;99.90;;;;;;5025414;27;20819;-73
2021/10/12 09:07:30;;;;;;;12.93;11.63;;;12.20;99.90;;;;;;5032812;28;20195;-73
2021/10/12 09:09:57;;;;;;;14.23;12.37;;;12.20;99.90;;;;;;5026994;28;20209;-73
2021/10/12 09:12:42;;;;;;;13.57;12.17;;;12.20;99.90;;;;;;5042203;27;20468;-72
2021/10/12 09:15:09;;;;;;;15.00;12.43;;;12.20;99.90;;;;;;5065737;27;20457;-73
2021/10/12 09:17:36;;;;;;;13.97;12.50;;;12.20;99.90;;;;;;5014138;27;20837;-72
2021/10/12 09:20:26;;;;;;;13.63;12.07;;;12.10;99.90;;;;;;5008657;28;20812;-72
2021/10/12 09:23:13;;;;;;;14.07;12.57;;;12.10;99.90;;;;;;5010693;28;20497;-73
2021/10/12 09:25:41;;;;;;;14.47;12.63;;;12.10;99.90;;;;;;5010582;27;20454;-73
2021/10/12 09:28:20;;;;;;;17.00;11.40;;;12.10;99.90;;;;;;5013239;28;20476;-73
2021/10/12 09:30:45;;;;;;;12.23;10.43;;;12.10;99.90;;;;;;5011020;28;20421;-73
2021/10/12 09:33:11;;;;;;;11.63;10.43;;;12.10;99.90;;;;;;5023908;27;20500;-74
2021/10/12 09:35:38;;;;;;;11.87;10.20;;;12.20;99.90;;;;;;5024428;28;20195;-74
2021/10/12 09:38:04;;;;;;;12.27;10.97;;;12.20;99.90;;;;;;5008477;28;20232;-74
2021/10/12 09:40:30;;;;;;;10.87;9.77;;;12.10;99.90;;;;;;5008687;28;20421;-73
2021/10/12 09:42:55;;;;;;;14.43;10.77;;;12.20;99.90;;;;;;5008975;28;20406;-73
2021/10/12 09:45:35;;;;;;;11.97;10.73;;;12.10;99.90;;;;;;5014880;28;20336;-73
2021/10/12 09:48:01;;;;;;;11.23;9.90;;;12.10;99.90;;;;;;5026728;28;20233;-74
2021/10/12 09:50:33;;;;;;;13.13;10.70;;;12.10;99.90;;;;;;5028584;28;21311;-74
2021/10/12 09:52:59;;;;;;;11.57;10.43;;;12.10;99.90;;;;;;5027621;27;20193;-73
2021/10/12 09:55:35;;;;;;;11.60;10.43;;;12.10;99.90;;;;;;5025079;28;20469;-73
2021/10/12 09:58:03;;;;;;;11.50;10.10;;;12.20;99.90;;;;;;5025832;27;20597;-73
2021/10/12 10:00:29;;;;;;;10.70;9.60;;;12.20;99.90;;;;;;5013871;28;20472;-74
2021/10/12 10:02:57;;;;;;;9.77;8.73;;;12.10;99.90;;;;;;5006594;28;20422;-73
2021/10/12 10:05:24;;;;;;;10.40;9.17;;;12.10;99.90;;;;;;5007930;28;20462;-73
2021/10/12 10:07:52;;;;;;;11.53;9.20;;;12.10;99.90;;;;;;5025984;28;21309;-74
2021/10/12 10:10:18;;;;;;;11.07;10.07;;;12.00;99.90;;;;;;5013543;27;20548;-74
2021/10/12 10:12:45;;;;;;;10.87;9.77;;;12.00;99.90;;;;;;5026934;28;20448;-74
2021/10/12 10:15:11;;;;;;;10.50;9.60;;;12.10;99.90;;;;;;5036259;28;20463;-73
2021/10/12 10:17:37;;;;;;;11.57;10.03;;;12.10;99.90;;;;;;5028416;27;20423;-74
2021/10/12 10:20:05;;;;;;;10.30;9.00;;;12.20;99.90;;;;;;5007880;28;20164;-73
2021/10/12 10:22:38;;;;;;;9.60;8.70;;;12.30;99.90;;;;;;5007053;27;20479;-72
2021/10/12 10:25:27;;;;;;;7.53;6.83;;;12.40;99.90;;;;;;5006806;28;20829;-73
2021/10/12 10:27:55;;;;;;;6.70;6.10;;;12.40;99.90;;;;;;5010496;28;20454;-73
2021/10/12 10:30:25;;;;;;;8.77;7.40;;;12.40;99.90;;;;;;5005901;28;20426;-73
2021/10/12 10:32:57;;;;;;;6.20;5.60;;;12.40;99.90;;;;;;5007413;28;20525;-73
2021/10/12 10:35:33;;;;;;;6.50;5.90;;;12.40;99.90;;;;;;5009652;27;20571;-74
2021/10/12 10:38:20;;;;;;;6.87;6.37;;;12.40;99.90;;;;;;5014609;28;20525;-73
2021/10/12 10:40:47;;;;;;;6.80;6.10;;;12.40;99.90;;;;;;5016609;28;20434;-73
2021/10/12 10:43:13;;;;;;;7.60;7.00;;;12.50;99.90;;;;;;5016000;28;20462;-73
2021/10/12 10:45:50;;;;;;;7.83;6.17;;;12.50;99.90;;;;;;5013645;27;21009;-73
2021/10/12 10:48:18;;;;;;;8.07;7.37;;;12.60;99.90;;;;;;5011739;28;20194;-74
2021/10/12 10:50:45;;;;;;;8.63;7.83;;;12.60;99.90;;;;;;5026977;28;20461;-74
2021/10/12 10:53:11;;;;;;;10.40;9.40;;;12.60;99.90;;;;;;5024882;28;20988;-74
2021/10/12 10:55:45;;;;;;;11.17;9.43;;;12.40;99.90;;;;;;5011928;27;20531;-74
2021/10/12 10:58:19;;;;;;;10.50;9.50;;;12.50;99.90;;;;;;5007404;27;20826;-72
2021/10/12 11:00:46;;;;;;;11.00;10.00;;;12.50;99.90;;;;;;5016335;28;20468;-72
2021/10/12 11:03:40;;;;;;;11.10;10.00;;;12.60;99.90;;;;;;5020324;28;20450;-73
2021/10/12 11:06:12;;;;;;;14.43;13.02;;;12.70;99.90;;;;;;5003972;28;20770;-73
2021/10/12 11:08:41;;;;;;;14.40;12.30;;;12.80;99.90;;;;;;5127699;27;20187;-73
2021/10/12 11:11:08;;;;;;;11.67;10.57;;;12.80;99.90;;;;;;5047160;27;20469;-75
2021/10/12 11:13:38;;;;;;;12.90;11.60;;;12.80;99.90;;;;;;5008567;27;20533;-74
2021/10/12 11:16:09;;;;;;;14.10;12.13;;;12.90;99.90;;;;;;5004367;28;20438;-74
2021/10/12 11:18:36;;;;;;;14.30;12.77;;;13.00;99.90;;;;;;5005423;27;20426;-74
2021/10/12 11:21:07;;;;;;;14.83;13.33;;;12.90;99.90;;;;;;5004476;28;20442;-73
2021/10/12 11:23:41;;;;;;;15.67;13.67;;;12.90;99.90;;;;;;5004025;27;20442;-73
2021/10/12 11:26:11;;;;;;;15.43;13.83;;;12.90;99.90;;;;;;5005387;28;21274;-73
2021/10/12 11:28:38;;;;;;;15.60;14.00;;;13.00;99.90;;;;;;5006336;28;20474;-74
2021/10/12 11:31:13;;;;;;;16.07;13.97;;;13.10;99.90;;;;;;5008995;27;20921;-73
2021/10/12 11:33:43;;;;;;;15.10;13.63;;;13.00;99.90;;;;;;5005976;28;20470;-72
2021/10/12 11:36:11;;;;;;;17.90;14.50;;;13.00;99.90;;;;;;5004852;28;20461;-72
2021/10/12 11:38:45;;;;;;;16.67;14.90;;;12.90;99.90;;;;;;5013798;27;20461;-76
2021/10/12 11:41:15;;;;;;;16.17;14.47;;;13.00;99.90;;;;;;5019338;27;20472;-72
2021/10/12 11:43:42;;;;;;;17.57;15.77;;;13.00;99.90;;;;;;5020508;28;20445;-73
2021/10/12 11:46:09;;;;;;;18.80;14.63;;;13.10;99.90;;;;;;5024311;27;20544;-72
2021/10/12 11:48:38;;;;;;;17.13;15.33;;;13.10;99.90;;;;;;5014345;27;21183;-74
2021/10/12 11:51:20;;;;;;;15.73;14.27;;;13.10;99.90;;;;;;5020707;27;20473;-72
2021/10/12 11:53:47;;;;;;;17.83;16.07;;;13.20;99.90;;;;;;5024845;27;20464;-72
2021/10/12 11:56:13;;;;;;;17.60;15.80;;;13.40;99.90;;;;;;5006156;28;20471;-73
2021/10/12 11:58:40;;;;;;;16.67;14.87;;;13.50;99.90;;;;;;5005305;27;20430;-73
2021/10/12 12:01:09;;;;;;;18.07;14.60;;;13.40;99.90;;;;;;5005799;28;20422;-73
2021/10/12 12:03:35;;;;;;;17.60;13.63;;;13.50;99.90;;;;;;5005996;28;20411;-73
2021/10/12 12:06:00;;;;;;;19.43;14.70;;;13.50;99.90;;;;;;5007150;28;20445;-72
2021/10/12 12:08:27;;;;;;;15.00;13.50;;;13.50;99.90;;;;;;5027562;28;20193;-72
2021/10/12 12:10:55;;;;;;;15.40;13.83;;;13.50;99.90;;;;;;5047324;28;20174;-72
2021/10/12 12:13:21;;;;;;;15.40;13.80;;;13.50;99.90;;;;;;5017387;28;20777;-72
2021/10/12 12:15:47;;;;;;;16.67;15.07;;;13.50;99.90;;;;;;5011386;28;20548;-72
2021/10/12 12:18:17;;;;;;;14.90;13.40;;;13.60;99.90;;;;;;5026343;28;20880;-72
2021/10/12 12:21:00;;;;;;;15.90;13.73;;;13.50;99.90;;;;;;5024769;28;20759;-73
2021/10/12 12:23:39;;;;;;;19.10;15.37;;;13.60;99.90;;;;;;5036753;28;20787;-72
2021/10/12 12:26:10;;;;;;;16.90;14.13;;;13.50;99.90;;;;;;5038705;28;20833;-73
2021/10/12 12:28:37;;;;;;;20.30;14.60;;;13.50;99.90;;;;;;5005826;28;20391;-73
2021/10/12 12:31:23;;;;;;;16.80;14.27;;;13.50;99.90;;;;;;5006030;28;20418;-73